sensor_id;sensor_type;location;lat;lon;timestamp;pressure;altitude;pressure_sealevel;temperature;humidity
46394;BME280;32099;53.588;10.176;2023-09-18T00:00:47;100724.97;;;19.83;72.74
46394;BME280;32099;53.588;10.176;2023-09-18T00:03:18;100720.28;;;19.84;72.71
46394;BME280;32099;53.588;10.176;2023-09-18T00:05:45;100727.13;;;19.81;72.69
46394;BME280;32099;53.588;10.176;2023-09-18T00:08:12;100726.53;;;19.79;73.30
46394;BME280;32099;53.588;10.176;2023-09-18T00:10:38;100712.34;;;19.76;72.88
46394;BME280;32099;53.588;10.176;2023-09-18T00:13:03;100712.59;;;19.74;73.34
46394;BME280;32099;53.588;10.176;2023-09-18T00:15:29;100714.03;;;19.77;72.82
46394;BME280;32099;53.588;10.176;2023-09-18T00:17:55;100709.84;;;19.74;72.87
46394;BME280;32099;53.588;10.176;2023-09-18T00:20:21;100701.44;;;19.69;72.66
46394;BME280;32099;53.588;10.176;2023-09-18T00:22:51;100702.16;;;19.64;73.02
46394;BME280;32099;53.588;10.176;2023-09-18T00:25:18;100698.31;;;19.65;73.38
46394;BME280;32099;53.588;10.176;2023-09-18T00:27:43;100698.81;;;19.62;73.08
46394;BME280;32099;53.588;10.176;2023-09-18T00:30:09;100692.91;;;19.58;73.34
46394;BME280;32099;53.588;10.176;2023-09-18T00:32:34;100691.25;;;19.57;73.42
46394;BME280;32099;53.588;10.176;2023-09-18T00:35:00;100684.63;;;19.58;73.44
46394;BME280;32099;53.588;10.176;2023-09-18T00:37:25;100669.97;;;19.58;73.27
46394;BME280;32099;53.588;10.176;2023-09-18T00:39:50;100681.63;;;19.60;73.09
46394;BME280;32099;53.588;10.176;2023-09-18T00:42:15;100672.47;;;19.60;73.40
46394;BME280;32099;53.588;10.176;2023-09-18T00:44:43;100658.31;;;19.56;72.95
46394;BME280;32099;53.588;10.176;2023-09-18T00:47:08;100668.53;;;19.55;72.71
46394;BME280;32099;53.588;10.176;2023-09-18T00:49:34;100659.88;;;19.52;72.83
46394;BME280;32099;53.588;10.176;2023-09-18T00:52:01;100664.22;;;19.48;73.16
46394;BME280;32099;53.588;10.176;2023-09-18T00:54:28;100666.66;;;19.44;73.20
46394;BME280;32099;53.588;10.176;2023-09-18T00:56:54;100655.47;;;19.39;73.50
46394;BME280;32099;53.588;10.176;2023-09-18T00:59:20;100645.63;;;19.31;73.85
46394;BME280;32099;53.588;10.176;2023-09-18T01:01:46;100642.38;;;19.34;73.62
46394;BME280;32099;53.588;10.176;2023-09-18T01:04:14;100642.03;;;19.31;73.73
46394;BME280;32099;53.588;10.176;2023-09-18T01:06:41;100646.97;;;19.29;73.98
46394;BME280;32099;53.588;10.176;2023-09-18T01:09:06;100638.06;;;19.26;73.92
46394;BME280;32099;53.588;10.176;2023-09-18T01:11:47;100645.16;;;19.22;73.74
46394;BME280;32099;53.588;10.176;2023-09-18T01:16:48;100639.03;;;19.32;73.39
46394;BME280;32099;53.588;10.176;2023-09-18T01:19:33;100637.34;;;19.31;73.47
46394;BME280;32099;53.588;10.176;2023-09-18T01:22:02;100628.34;;;19.24;73.68
46394;BME280;32099;53.588;10.176;2023-09-18T01:24:28;100629.19;;;19.24;73.63
46394;BME280;32099;53.588;10.176;2023-09-18T01:26:53;100629.91;;;19.20;73.62
46394;BME280;32099;53.588;10.176;2023-09-18T01:29:18;100617.91;;;19.14;74.30
46394;BME280;32099;53.588;10.176;2023-09-18T01:31:44;100618.16;;;19.13;73.92
46394;BME280;32099;53.588;10.176;2023-09-18T01:34:13;100606.25;;;19.12;73.85
46394;BME280;32099;53.588;10.176;2023-09-18T01:36:41;100611.78;;;19.12;74.08
46394;BME280;32099;53.588;10.176;2023-09-18T01:39:09;100606.25;;;19.12;74.06
46394;BME280;32099;53.588;10.176;2023-09-18T01:41:36;100597.75;;;19.14;74.27
46394;BME280;32099;53.588;10.176;2023-09-18T01:44:03;100591.25;;;19.08;74.14
46394;BME280;32099;53.588;10.176;2023-09-18T01:46:29;100591.50;;;19.06;74.11
46394;BME280;32099;53.588;10.176;2023-09-18T01:48:57;100588.13;;;19.04;74.27
46394;BME280;32099;53.588;10.176;2023-09-18T01:51:23;100580.09;;;19.03;74.05
46394;BME280;32099;53.588;10.176;2023-09-18T01:53:49;100581.44;;;19.00;74.31
46394;BME280;32099;53.588;10.176;2023-09-18T01:56:14;100573.63;;;18.97;74.34
46394;BME280;32099;53.588;10.176;2023-09-18T01:58:39;100574.69;;;18.96;74.66
46394;BME280;32099;53.588;10.176;2023-09-18T02:01:04;100565.59;;;18.95;74.31
46394;BME280;32099;53.588;10.176;2023-09-18T02:03:30;100560.75;;;18.91;74.28
46394;BME280;32099;53.588;10.176;2023-09-18T02:05:55;100554.84;;;18.87;74.32
46394;BME280;32099;53.588;10.176;2023-09-18T02:08:20;100551.28;;;18.87;74.44
46394;BME280;32099;53.588;10.176;2023-09-18T02:10:46;100553.69;;;18.83;74.64
46394;BME280;32099;53.588;10.176;2023-09-18T02:13:11;100546.94;;;18.79;74.90
46394;BME280;32099;53.588;10.176;2023-09-18T02:15:37;100545.53;;;18.76;75.04
46394;BME280;32099;53.588;10.176;2023-09-18T02:18:02;100538.06;;;18.77;74.87
46394;BME280;32099;53.588;10.176;2023-09-18T02:20:28;100529.78;;;18.77;74.86
46394;BME280;32099;53.588;10.176;2023-09-18T02:22:53;100536.97;;;18.78;74.76
46394;BME280;32099;53.588;10.176;2023-09-18T02:25:18;100527.63;;;18.79;74.69
46394;BME280;32099;53.588;10.176;2023-09-18T02:27:44;100527.63;;;18.79;74.82
46394;BME280;32099;53.588;10.176;2023-09-18T02:30:09;100515.97;;;18.77;74.49
46394;BME280;32099;53.588;10.176;2023-09-18T02:32:35;100519.81;;;18.76;74.84
46394;BME280;32099;53.588;10.176;2023-09-18T02:35:01;100515.88;;;18.72;75.05
46394;BME280;32099;53.588;10.176;2023-09-18T02:37:26;100504.72;;;18.66;75.07
46394;BME280;32099;53.588;10.176;2023-09-18T02:39:54;100506.03;;;18.64;75.35
46394;BME280;32099;53.588;10.176;2023-09-18T02:42:19;100513.50;;;18.63;75.23
46394;BME280;32099;53.588;10.176;2023-09-18T02:44:44;100505.09;;;18.58;75.35
46394;BME280;32099;53.588;10.176;2023-09-18T02:47:09;100502.59;;;18.57;75.41
46394;BME280;32099;53.588;10.176;2023-09-18T02:49:35;100496.94;;;18.52;76.30
46394;BME280;32099;53.588;10.176;2023-09-18T02:52:00;100502.09;;;18.48;75.65
46394;BME280;32099;53.588;10.176;2023-09-18T02:54:26;100497.91;;;18.45;75.83
46394;BME280;32099;53.588;10.176;2023-09-18T02:56:52;100492.63;;;18.44;75.99
46394;BME280;32099;53.588;10.176;2023-09-18T02:59:17;100496.72;;;18.41;76.37
46394;BME280;32099;53.588;10.176;2023-09-18T03:01:42;100492.88;;;18.42;76.27
46394;BME280;32099;53.588;10.176;2023-09-18T03:04:08;100487.69;;;18.46;76.92
46394;BME280;32099;53.588;10.176;2023-09-18T03:06:33;100488.53;;;18.46;75.83
46394;BME280;32099;53.588;10.176;2023-09-18T03:08:58;100494.03;;;18.46;76.16
46394;BME280;32099;53.588;10.176;2023-09-18T03:11:23;100486.63;;;18.47;76.53
46394;BME280;32099;53.588;10.176;2023-09-18T03:13:52;100495.50;;;18.49;76.24
46394;BME280;32099;53.588;10.176;2023-09-18T03:16:17;100496.34;;;18.49;75.65
46394;BME280;32099;53.588;10.176;2023-09-18T03:18:42;100480.03;;;18.48;75.49
46394;BME280;32099;53.588;10.176;2023-09-18T03:21:08;100485.63;;;18.53;75.88
46394;BME280;32099;53.588;10.176;2023-09-18T03:23:33;100484.00;;;18.52;76.02
46394;BME280;32099;53.588;10.176;2023-09-18T03:25:59;100477.00;;;18.49;75.79
46394;BME280;32099;53.588;10.176;2023-09-18T03:28:24;100470.06;;;18.47;75.96
46394;BME280;32099;53.588;10.176;2023-09-18T03:30:50;100466.09;;;18.43;76.98
46394;BME280;32099;53.588;10.176;2023-09-18T03:33:15;100462.16;;;18.39;76.18
46394;BME280;32099;53.588;10.176;2023-09-18T03:35:50;100464.06;;;18.38;76.17
46394;BME280;32099;53.588;10.176;2023-09-18T03:38:16;100457.72;;;18.38;76.72
46394;BME280;32099;53.588;10.176;2023-09-18T03:40:42;100451.00;;;18.33;76.37
46394;BME280;32099;53.588;10.176;2023-09-18T03:43:09;100445.47;;;18.33;76.85
46394;BME280;32099;53.588;10.176;2023-09-18T03:45:34;100431.94;;;18.32;76.40
46394;BME280;32099;53.588;10.176;2023-09-18T03:48:00;100434.91;;;18.30;77.29
46394;BME280;32099;53.588;10.176;2023-09-18T03:50:26;100423.53;;;18.27;76.55
46394;BME280;32099;53.588;10.176;2023-09-18T03:52:52;100421.72;;;18.32;76.63
46394;BME280;32099;53.588;10.176;2023-09-18T03:55:17;100415.13;;;18.33;76.98
46394;BME280;32099;53.588;10.176;2023-09-18T03:57:43;100413.91;;;18.29;76.71
46394;BME280;32099;53.588;10.176;2023-09-18T04:00:11;100403.59;;;18.25;76.98
46394;BME280;32099;53.588;10.176;2023-09-18T04:02:36;100405.63;;;18.29;76.68
46394;BME280;32099;53.588;10.176;2023-09-18T04:05:02;100403.47;;;18.31;77.00
46394;BME280;32099;53.588;10.176;2023-09-18T04:07:28;100396.28;;;18.30;76.56
46394;BME280;32099;53.588;10.176;2023-09-18T04:09:53;100396.66;;;18.34;76.68
46394;BME280;32099;53.588;10.176;2023-09-18T04:12:19;100391.13;;;18.34;76.42
46394;BME280;32099;53.588;10.176;2023-09-18T04:14:44;100382.47;;;18.30;76.98
46394;BME280;32099;53.588;10.176;2023-09-18T04:17:10;100388.84;;;18.31;76.46
46394;BME280;32099;53.588;10.176;2023-09-18T04:19:35;100386.09;;;18.31;77.21
46394;BME280;32099;53.588;10.176;2023-09-18T04:22:00;100385.22;;;18.30;76.68
46394;BME280;32099;53.588;10.176;2023-09-18T04:24:26;100382.13;;;18.27;76.65
46394;BME280;32099;53.588;10.176;2023-09-18T04:26:51;100379.16;;;18.28;76.56
46394;BME280;32099;53.588;10.176;2023-09-18T04:29:17;100371.44;;;18.30;76.68
46394;BME280;32099;53.588;10.176;2023-09-18T04:31:43;100372.03;;;18.32;76.20
46394;BME280;32099;53.588;10.176;2023-09-18T04:34:08;100369.28;;;18.32;76.28
46394;BME280;32099;53.588;10.176;2023-09-18T04:36:35;100364.34;;;18.34;76.39
46394;BME280;32099;53.588;10.176;2023-09-18T04:39:02;100363.75;;;18.32;77.33
46394;BME280;32099;53.588;10.176;2023-09-18T04:41:29;100362.94;;;18.32;77.36
46394;BME280;32099;53.588;10.176;2023-09-18T04:43:54;100361.00;;;18.32;77.18
46394;BME280;32099;53.588;10.176;2023-09-18T04:46:20;100355.47;;;18.32;76.37
46394;BME280;32099;53.588;10.176;2023-09-18T04:48:45;100349.47;;;18.35;76.26
46394;BME280;32099;53.588;10.176;2023-09-18T04:51:10;100345.88;;;18.35;76.42
46394;BME280;32099;53.588;10.176;2023-09-18T04:53:37;100337.84;;;18.33;76.66
46394;BME280;32099;53.588;10.176;2023-09-18T04:56:02;100336.16;;;18.32;77.17
46394;BME280;32099;53.588;10.176;2023-09-18T04:58:28;100337.50;;;18.30;77.79
46394;BME280;32099;53.588;10.176;2023-09-18T05:00:54;100321.41;;;18.27;76.86
46394;BME280;32099;53.588;10.176;2023-09-18T05:03:20;100323.94;;;18.28;76.60
46394;BME280;32099;53.588;10.176;2023-09-18T05:05:46;100314.09;;;18.32;76.69
46394;BME280;32099;53.588;10.176;2023-09-18T05:08:12;100310.59;;;18.37;76.46
46394;BME280;32099;53.588;10.176;2023-09-18T05:10:37;100303.97;;;18.38;76.37
46394;BME280;32099;53.588;10.176;2023-09-18T05:13:02;100293.28;;;18.42;76.30
46394;BME280;32099;53.588;10.176;2023-09-18T05:15:29;100298.81;;;18.42;76.21
46394;BME280;32099;53.588;10.176;2023-09-18T05:17:54;100283.91;;;18.43;76.86
46394;BME280;32099;53.588;10.176;2023-09-18T05:20:22;100280.34;;;18.42;76.39
46394;BME280;32099;53.588;10.176;2023-09-18T05:22:53;100277.31;;;18.44;76.62
46394;BME280;32099;53.588;10.176;2023-09-18T05:25:19;100271.31;;;18.47;76.58
46394;BME280;32099;53.588;10.176;2023-09-18T05:27:46;100261.94;;;18.48;76.85
46394;BME280;32099;53.588;10.176;2023-09-18T05:30:13;100257.84;;;18.50;76.36
46394;BME280;32099;53.588;10.176;2023-09-18T05:32:41;100256.50;;;18.53;76.30
46394;BME280;32099;53.588;10.176;2023-09-18T05:35:07;100252.66;;;18.54;76.42
46394;BME280;32099;53.588;10.176;2023-09-18T05:37:36;100239.13;;;18.53;76.50
46394;BME280;32099;53.588;10.176;2023-09-18T05:40:05;100244.38;;;18.54;77.02
46394;BME280;32099;53.588;10.176;2023-09-18T05:42:34;100247.72;;;18.56;76.39
46394;BME280;32099;53.588;10.176;2023-09-18T05:45:01;100256.88;;;18.57;76.91
46394;BME280;32099;53.588;10.176;2023-09-18T05:47:26;100257.69;;;18.57;77.40
46394;BME280;32099;53.588;10.176;2023-09-18T05:49:52;100253.50;;;18.55;77.50
46394;BME280;32099;53.588;10.176;2023-09-18T05:52:17;100248.31;;;18.58;77.22
46394;BME280;32099;53.588;10.176;2023-09-18T05:54:42;100249.50;;;18.62;77.21
46394;BME280;32099;53.588;10.176;2023-09-18T05:57:08;100240.97;;;18.64;77.02
46394;BME280;32099;53.588;10.176;2023-09-18T05:59:33;100225.81;;;18.66;76.76
46394;BME280;32099;53.588;10.176;2023-09-18T06:01:58;100227.00;;;18.71;76.62
46394;BME280;32099;53.588;10.176;2023-09-18T06:04:24;100220.72;;;18.75;76.40
46394;BME280;32099;53.588;10.176;2023-09-18T06:06:49;100227.44;;;18.79;76.59
46394;BME280;32099;53.588;10.176;2023-09-18T06:09:16;100221.56;;;18.76;77.52
46394;BME280;32099;53.588;10.176;2023-09-18T06:11:41;100207.03;;;18.80;77.10
46394;BME280;32099;53.588;10.176;2023-09-18T06:14:06;100206.50;;;18.84;76.46
46394;BME280;32099;53.588;10.176;2023-09-18T06:16:32;100210.19;;;18.89;76.53
46394;BME280;32099;53.588;10.176;2023-09-18T06:18:57;100205.59;;;18.95;77.29
46394;BME280;32099;53.588;10.176;2023-09-18T06:21:25;100203.75;;;19.01;76.30
46394;BME280;32099;53.588;10.176;2023-09-18T06:23:50;100199.09;;;19.01;76.18
46394;BME280;32099;53.588;10.176;2023-09-18T06:26:16;100196.16;;;19.08;76.33
46394;BME280;32099;53.588;10.176;2023-09-18T06:28:43;100194.03;;;19.15;76.64
46394;BME280;32099;53.588;10.176;2023-09-18T06:31:08;100197.44;;;19.22;76.68
46394;BME280;32099;53.588;10.176;2023-09-18T06:33:34;100195.66;;;19.33;76.27
46394;BME280;32099;53.588;10.176;2023-09-18T06:35:59;100191.88;;;19.39;76.13
46394;BME280;32099;53.588;10.176;2023-09-18T06:38:25;100185.94;;;19.48;75.43
46394;BME280;32099;53.588;10.176;2023-09-18T06:40:50;100181.28;;;19.53;75.49
46394;BME280;32099;53.588;10.176;2023-09-18T06:43:16;100169.69;;;19.56;74.97
46394;BME280;32099;53.588;10.176;2023-09-18T06:45:42;100179.75;;;19.63;75.25
46394;BME280;32099;53.588;10.176;2023-09-18T06:48:07;100185.31;;;19.68;75.20
46394;BME280;32099;53.588;10.176;2023-09-18T06:50:32;100184.03;;;19.76;75.23
46394;BME280;32099;53.588;10.176;2023-09-18T06:52:58;100184.63;;;19.78;75.52
46394;BME280;32099;53.588;10.176;2023-09-18T06:55:23;100184.63;;;19.78;75.32
46394;BME280;32099;53.588;10.176;2023-09-18T06:57:48;100181.34;;;19.81;74.75
46394;BME280;32099;53.588;10.176;2023-09-18T07:00:17;100175.53;;;19.82;75.06
46394;BME280;32099;53.588;10.176;2023-09-18T07:02:45;100159.53;;;19.84;75.39
46394;BME280;32099;53.588;10.176;2023-09-18T07:05:12;100149.91;;;19.87;75.06
46394;BME280;32099;53.588;10.176;2023-09-18T07:07:38;100143.34;;;19.93;74.87
46394;BME280;32099;53.588;10.176;2023-09-18T07:10:03;100130.41;;;19.99;75.12
46394;BME280;32099;53.588;10.176;2023-09-18T07:12:29;100131.00;;;20.06;74.53
46394;BME280;32099;53.588;10.176;2023-09-18T07:14:54;100121.94;;;20.11;74.10
46394;BME280;32099;53.588;10.176;2023-09-18T07:17:19;100118.94;;;20.17;74.63
46394;BME280;32099;53.588;10.176;2023-09-18T07:19:45;100108.81;;;20.28;74.24
46394;BME280;32099;53.588;10.176;2023-09-18T07:22:10;100108.38;;;20.42;73.93
46394;BME280;32099;53.588;10.176;2023-09-18T07:24:35;100096.28;;;20.53;74.09
46394;BME280;32099;53.588;10.176;2023-09-18T07:27:00;100093.81;;;20.62;73.86
46394;BME280;32099;53.588;10.176;2023-09-18T07:29:27;100089.22;;;20.73;73.35
46394;BME280;32099;53.588;10.176;2023-09-18T07:31:52;100082.91;;;20.83;73.06
46394;BME280;32099;53.588;10.176;2023-09-18T07:34:17;100086.06;;;20.96;72.77
46394;BME280;32099;53.588;10.176;2023-09-18T07:36:43;100077.22;;;21.05;72.43
46394;BME280;32099;53.588;10.176;2023-09-18T07:39:09;100068.38;;;21.13;72.49
46394;BME280;32099;53.588;10.176;2023-09-18T07:41:36;100088.16;;;21.32;73.07
46394;BME280;32099;53.588;10.176;2023-09-18T07:44:02;100097.59;;;21.41;71.87
46394;BME280;32099;53.588;10.176;2023-09-18T07:46:27;100094.59;;;21.48;71.66
46394;BME280;32099;53.588;10.176;2023-09-18T07:48:53;100093.50;;;21.54;71.66
46394;BME280;32099;53.588;10.176;2023-09-18T07:51:19;100092.19;;;21.62;71.88
46394;BME280;32099;53.588;10.176;2023-09-18T07:53:44;100072.78;;;21.72;71.31
46394;BME280;32099;53.588;10.176;2023-09-18T07:56:09;100075.59;;;21.83;70.99
46394;BME280;32099;53.588;10.176;2023-09-18T07:58:35;100075.31;;;21.95;70.37
46394;BME280;32099;53.588;10.176;2023-09-18T08:01:03;100071.13;;;21.97;70.80
46394;BME280;32099;53.588;10.176;2023-09-18T08:03:31;100077.28;;;22.04;71.03
46394;BME280;32099;53.588;10.176;2023-09-18T08:05:57;100090.03;;;22.11;70.23
46394;BME280;32099;53.588;10.176;2023-09-18T08:08:22;100084.50;;;22.16;70.48
46394;BME280;32099;53.588;10.176;2023-09-18T08:10:48;100079.22;;;22.25;70.25
46394;BME280;32099;53.588;10.176;2023-09-18T08:13:14;100082.00;;;22.30;69.62
46394;BME280;32099;53.588;10.176;2023-09-18T08:15:40;100070.63;;;22.31;70.20
46394;BME280;32099;53.588;10.176;2023-09-18T08:18:05;100057.56;;;22.37;69.96
46394;BME280;32099;53.588;10.176;2023-09-18T08:20:30;100051.72;;;22.44;70.29
46394;BME280;32099;53.588;10.176;2023-09-18T08:22:57;100051.19;;;22.52;70.18
46394;BME280;32099;53.588;10.176;2023-09-18T08:25:26;100042.28;;;22.55;69.60
46394;BME280;32099;53.588;10.176;2023-09-18T08:27:51;100043.13;;;22.56;68.69
46394;BME280;32099;53.588;10.176;2023-09-18T08:30:17;100047.56;;;22.57;69.25
46394;BME280;32099;53.588;10.176;2023-09-18T08:32:45;100051.47;;;22.56;69.88
46394;BME280;32099;53.588;10.176;2023-09-18T08:35:11;100083.69;;;22.52;69.12
46394;BME280;32099;53.588;10.176;2023-09-18T08:37:36;100108.13;;;22.55;69.44
46394;BME280;32099;53.588;10.176;2023-09-18T08:40:01;100101.19;;;22.62;69.52
46394;BME280;32099;53.588;10.176;2023-09-18T08:42:34;100097.81;;;22.71;69.43
46394;BME280;32099;53.588;10.176;2023-09-18T08:45:01;100108.38;;;22.74;68.74
46394;BME280;32099;53.588;10.176;2023-09-18T08:47:28;100095.56;;;22.78;69.29
46394;BME280;32099;53.588;10.176;2023-09-18T08:49:54;100107.50;;;22.84;68.87
46394;BME280;32099;53.588;10.176;2023-09-18T08:52:22;100100.56;;;22.81;68.27
46394;BME280;32099;53.588;10.176;2023-09-18T08:54:48;100089.75;;;22.74;68.45
46394;BME280;32099;53.588;10.176;2023-09-18T08:57:15;100095.91;;;22.71;68.38
46394;BME280;32099;53.588;10.176;2023-09-18T08:59:41;100106.72;;;22.68;68.56
46394;BME280;32099;53.588;10.176;2023-09-18T09:02:08;100101.19;;;22.62;67.95
46394;BME280;32099;53.588;10.176;2023-09-18T09:04:36;100106.47;;;22.59;68.67
46394;BME280;32099;53.588;10.176;2023-09-18T09:07:02;100109.78;;;22.61;67.95
46394;BME280;32099;53.588;10.176;2023-09-18T09:09:28;100100.06;;;22.63;68.47
46394;BME280;32099;53.588;10.176;2023-09-18T09:11:54;100100.63;;;22.65;68.43
46394;BME280;32099;53.588;10.176;2023-09-18T09:14:19;100085.59;;;22.67;68.31
46394;BME280;32099;53.588;10.176;2023-09-18T09:16:53;100075.03;;;22.69;68.81
46394;BME280;32099;53.588;10.176;2023-09-18T09:19:29;100074.50;;;22.77;68.81
46394;BME280;32099;53.588;10.176;2023-09-18T09:21:56;100071.38;;;22.84;68.59
46394;BME280;32099;53.588;10.176;2023-09-18T09:24:36;100070.00;;;22.86;67.51
46394;BME280;32099;53.588;10.176;2023-09-18T09:27:02;100062.22;;;22.88;67.67
46394;BME280;32099;53.588;10.176;2023-09-18T09:29:28;100059.97;;;23.01;67.85
46394;BME280;32099;53.588;10.176;2023-09-18T09:31:54;100055.19;;;23.11;67.89
46394;BME280;32099;53.588;10.176;2023-09-18T09:34:25;100064.06;;;23.24;67.49
46394;BME280;32099;53.588;10.176;2023-09-18T09:36:55;100052.31;;;23.37;67.25
46394;BME280;32099;53.588;10.176;2023-09-18T09:39:21;100049.78;;;23.46;66.15
46394;BME280;32099;53.588;10.176;2023-09-18T09:41:49;100044.22;;;23.46;67.12
46394;BME280;32099;53.588;10.176;2023-09-18T09:44:15;100042.56;;;23.45;67.53
46394;BME280;32099;53.588;10.176;2023-09-18T09:46:47;100042.00;;;23.43;67.38
46394;BME280;32099;53.588;10.176;2023-09-18T09:49:13;100053.16;;;23.38;67.07
46394;BME280;32099;53.588;10.176;2023-09-18T09:51:40;100047.38;;;23.29;67.86
46394;BME280;32099;53.588;10.176;2023-09-18T09:54:06;100047.09;;;23.25;68.08
46394;BME280;32099;53.588;10.176;2023-09-18T09:56:42;100050.41;;;23.27;68.16
46394;BME280;32099;53.588;10.176;2023-09-18T09:59:08;100037.94;;;23.25;68.09
46394;BME280;32099;53.588;10.176;2023-09-18T10:01:34;100043.50;;;23.25;68.57
46394;BME280;32099;53.588;10.176;2023-09-18T10:04:03;100039.03;;;23.24;68.18
46394;BME280;32099;53.588;10.176;2023-09-18T10:06:32;100042.06;;;23.27;67.69
46394;BME280;32099;53.588;10.176;2023-09-18T10:08:59;100040.41;;;23.32;68.18
46394;BME280;32099;53.588;10.176;2023-09-18T10:11:27;100030.09;;;23.37;67.36
46394;BME280;32099;53.588;10.176;2023-09-18T10:13:53;100026.44;;;23.37;67.48
46394;BME280;32099;53.588;10.176;2023-09-18T10:16:22;100030.66;;;23.34;67.78
46394;BME280;32099;53.588;10.176;2023-09-18T10:18:55;100034.84;;;23.32;67.96
46394;BME280;32099;53.588;10.176;2023-09-18T10:24:14;100045.72;;;23.28;68.19
46394;BME280;32099;53.588;10.176;2023-09-18T10:26:55;100047.34;;;23.34;68.87
46394;BME280;32099;53.588;10.176;2023-09-18T10:29:23;100053.44;;;23.36;68.65
46394;BME280;32099;53.588;10.176;2023-09-18T10:31:50;100048.13;;;23.40;68.85
46394;BME280;32099;53.588;10.176;2023-09-18T10:34:17;100052.53;;;23.51;68.67
46394;BME280;32099;53.588;10.176;2023-09-18T10:36:44;100049.13;;;23.60;68.28
46394;BME280;32099;53.588;10.176;2023-09-18T10:39:12;100050.22;;;23.64;68.43
46394;BME280;32099;53.588;10.176;2023-09-18T10:41:38;100056.84;;;23.73;67.98
46394;BME280;32099;53.588;10.176;2023-09-18T10:44:04;100054.50;;;23.91;68.28
46394;BME280;32099;53.588;10.176;2023-09-18T10:46:30;100056.69;;;24.04;67.62
46394;BME280;32099;53.588;10.176;2023-09-18T10:48:57;100051.53;;;24.16;67.26
46394;BME280;32099;53.588;10.176;2023-09-18T10:51:24;100036.16;;;24.24;67.17
46394;BME280;32099;53.588;10.176;2023-09-18T10:53:50;100041.47;;;24.21;66.49
46394;BME280;32099;53.588;10.176;2023-09-18T10:56:17;100054.88;;;24.18;67.53
46394;BME280;32099;53.588;10.176;2023-09-18T10:58:44;100061.53;;;24.23;67.35
46394;BME280;32099;53.588;10.176;2023-09-18T11:01:11;100057.84;;;24.27;67.47
46394;BME280;32099;53.588;10.176;2023-09-18T11:03:37;100063.09;;;24.34;68.08
46394;BME280;32099;53.588;10.176;2023-09-18T11:06:12;100064.19;;;24.38;67.08
46394;BME280;32099;53.588;10.176;2023-09-18T11:08:49;100073.38;;;24.39;67.27
46394;BME280;32099;53.588;10.176;2023-09-18T11:11:17;100064.44;;;24.42;67.18
46394;BME280;32099;53.588;10.176;2023-09-18T11:13:46;100057.56;;;24.58;67.72
46394;BME280;32099;53.588;10.176;2023-09-18T11:18:53;100043.34;;;24.89;66.14
46394;BME280;32099;53.588;10.176;2023-09-18T11:21:25;100053.13;;;24.87;66.50
46394;BME280;32099;53.588;10.176;2023-09-18T11:26:28;100058.56;;;24.97;66.04
46394;BME280;32099;53.588;10.176;2023-09-18T11:28:59;100056.19;;;25.09;67.53
46394;BME280;32099;53.588;10.176;2023-09-18T11:31:47;100053.44;;;25.29;65.64
46394;BME280;32099;53.588;10.176;2023-09-18T11:34:25;100061.06;;;25.47;65.43
46394;BME280;32099;53.588;10.176;2023-09-18T11:36:53;100057.66;;;25.50;64.87
46394;BME280;32099;53.588;10.176;2023-09-18T11:39:33;100059.63;;;25.50;65.59
46394;BME280;32099;53.588;10.176;2023-09-18T11:42:13;100066.03;;;25.50;65.52
46394;BME280;32099;53.588;10.176;2023-09-18T11:44:43;100061.06;;;25.47;65.69
46394;BME280;32099;53.588;10.176;2023-09-18T11:47:12;100066.44;;;25.38;65.57
46394;BME280;32099;53.588;10.176;2023-09-18T11:49:46;100063.25;;;25.26;65.80
46394;BME280;32099;53.588;10.176;2023-09-18T11:52:16;100062.63;;;25.10;65.24
46394;BME280;32099;53.588;10.176;2023-09-18T11:54:42;100066.66;;;24.99;66.31
46394;BME280;32099;53.588;10.176;2023-09-18T11:57:07;100050.75;;;24.99;68.20
46394;BME280;32099;53.588;10.176;2023-09-18T11:59:34;100057.63;;;25.07;66.81
46394;BME280;32099;53.588;10.176;2023-09-18T12:02:02;100065.09;;;25.11;66.70
46394;BME280;32099;53.588;10.176;2023-09-18T12:04:31;100066.22;;;25.10;65.81
46394;BME280;32099;53.588;10.176;2023-09-18T12:06:57;100072.41;;;25.07;66.22
46394;BME280;32099;53.588;10.176;2023-09-18T12:09:28;100080.25;;;25.05;64.04
46394;BME280;32099;53.588;10.176;2023-09-18T12:11:55;100080.59;;;24.99;64.42
46394;BME280;32099;53.588;10.176;2023-09-18T12:14:22;100074.00;;;24.89;65.85
46394;BME280;32099;53.588;10.176;2023-09-18T12:16:47;100075.25;;;24.78;65.39
46394;BME280;32099;53.588;10.176;2023-09-18T12:19:18;100080.56;;;24.74;66.32
46394;BME280;32099;53.588;10.176;2023-09-18T12:21:45;100070.84;;;24.72;65.72
46394;BME280;32099;53.588;10.176;2023-09-18T12:24:20;100058.25;;;24.74;65.86
46394;BME280;32099;53.588;10.176;2023-09-18T12:26:46;100052.69;;;24.74;65.97
46394;BME280;32099;53.588;10.176;2023-09-18T12:29:12;100052.66;;;24.79;66.45
46394;BME280;32099;53.588;10.176;2023-09-18T12:31:37;100061.25;;;24.83;64.42
46394;BME280;32099;53.588;10.176;2023-09-18T12:34:03;100064.53;;;24.90;65.63
46394;BME280;32099;53.588;10.176;2023-09-18T12:36:29;100068.31;;;25.00;65.94
46394;BME280;32099;53.588;10.176;2023-09-18T12:38:56;100062.13;;;25.03;64.54
46394;BME280;32099;53.588;10.176;2023-09-18T12:41:31;100052.47;;;25.19;63.57
46394;BME280;32099;53.588;10.176;2023-09-18T12:43:57;100074.88;;;25.33;62.74
46394;BME280;32099;53.588;10.176;2023-09-18T12:46:22;100064.25;;;25.35;63.47
46394;BME280;32099;53.588;10.176;2023-09-18T12:48:48;100057.59;;;25.31;62.28